Time;durP1;ratioP1;P1;durP2;ratioP2;P2;SDS_P1;SDS_P2;PMS_P1;PMS_P2;Temp;Humidity;BMP_temperature;BMP_pressure;BME280_temperature;BME280_humidity;BME280_pressure;Samples;Min_cycle;Max_cycle;Signal;HPM_P1;HPM_P2
2022/07/03 00:00:00;;;;;;;0.4;0.4;;;;;;;20.5;100.0;101450;;;;
2022/07/03 00:01:00;;;;;;;0.4;0.4;;;;;;;20.4;100.0;101450;;;;
2022/07/03 00:02:00;;;;;;;0.4;0.4;;;;;;;20.4;100.0;101450;;;;
2022/07/03 00:03:00;;;;;;;0.4;0.4;;;;;;;20.3;100.0;101440;;;;
2022/07/03 00:04:00;;;;;;;0.4;0.4;;;;;;;20.3;100.0;101440;;;;
2022/07/03 00:05:00;;;;;;;0.4;0.4;;;;;;;20.4;100.0;101440;;;;
2022/07/03 00:06:00;;;;;;;0.4;0.4;;;;;;;20.4;100.0;101440;;;;
2022/07/03 00:07:00;;;;;;;0.4;0.4;;;;;;;20.3;100.0;101430;;;;
2022/07/03 00:08:00;;;;;;;0.4;0.4;;;;;;;20.3;100.0;101430;;;;
2022/07/03 00:09:02;;;;;;;0.4;0.4;;;;;;;20.3;100.0;101440;;;;
2022/07/03 00:10:00;;;;;;;0.4;0.4;;;;;;;20.3;100.0;101440;;;;
2022/07/03 00:11:00;;;;;;;0.4;0.4;;;;;;;20.3;100.0;101440;;;;
2022/07/03 00:12:00;;;;;;;0.4;0.4;;;;;;;20.3;100.0;101440;;;;
2022/07/03 00:13:00;;;;;;;0.4;0.4;;;;;;;20.3;100.0;101440;;;;
2022/07/03 00:14:00;;;;;;;0.4;0.4;;;;;;;20.3;100.0;101440;;;;
2022/07/03 00:15:00;;;;;;;0.4;0.4;;;;;;;20.3;100.0;101440;;;;
2022/07/03 00:16:00;;;;;;;0.4;0.4;;;;;;;20.3;100.0;101440;;;;
2022/07/03 00:17:00;;;;;;;0.4;0.4;;;;;;;20.2;100.0;101440;;;;
2022/07/03 00:18:00;;;;;;;0.4;0.4;;;;;;;20.2;100.0;101440;;;;
2022/07/03 00:19:00;;;;;;;0.4;0.4;;;;;;;20.2;100.0;101440;;;;
2022/07/03 00:20:00;;;;;;;0.4;0.4;;;;;;;20.2;100.0;101440;;;;
2022/07/03 00:21:02;;;;;;;0.4;0.4;;;;;;;19.9;100.0;101440;;;;
2022/07/03 00:22:03;;;;;;;0.4;0.4;;;;;;;20.0;100.0;101430;;;;
2022/07/03 00:23:04;;;;;;;0.4;0.4;;;;;;;20.0;100.0;101430;;;;
2022/07/03 00:24:02;;;;;;;0.4;0.4;;;;;;;19.9;100.0;101440;;;;
2022/07/03 00:25:01;;;;;;;0.4;0.4;;;;;;;19.9;100.0;101440;;;;
2022/07/03 00:26:01;;;;;;;0.4;0.4;;;;;;;19.9;100.0;101440;;;;
2022/07/03 00:27:01;;;;;;;0.4;0.4;;;;;;;20.0;100.0;101430;;;;
2022/07/03 00:28:01;;;;;;;0.4;0.4;;;;;;;20.0;100.0;101430;;;;
2022/07/03 00:29:01;;;;;;;0.4;0.4;;;;;;;20.0;100.0;101430;;;;
2022/07/03 00:30:01;;;;;;;0.4;0.4;;;;;;;20.0;100.0;101430;;;;
2022/07/03 00:31:01;;;;;;;0.4;0.4;;;;;;;20.0;100.0;101430;;;;
2022/07/03 00:32:01;;;;;;;0.4;0.4;;;;;;;19.9;100.0;101430;;;;
2022/07/03 00:33:02;;;;;;;0.4;0.4;;;;;;;19.9;100.0;101430;;;;
2022/07/03 00:34:01;;;;;;;0.2;0.2;;;;;;;19.9;100.0;101430;;;;
2022/07/03 00:35:01;;;;;;;0.2;0.2;;;;;;;19.9;100.0;101440;;;;
2022/07/03 00:36:00;;;;;;;0.2;0.2;;;;;;;19.9;100.0;101440;;;;
2022/07/03 00:37:03;;;;;;;0.2;0.2;;;;;;;19.9;100.0;101440;;;;
2022/07/03 00:38:00;;;;;;;0.2;0.2;;;;;;;19.9;100.0;101440;;;;
2022/07/03 00:39:00;;;;;;;0.2;0.2;;;;;;;19.8;100.0;101440;;;;
2022/07/03 00:40:00;;;;;;;0.2;0.2;;;;;;;19.8;100.0;101440;;;;
2022/07/03 00:41:02;;;;;;;0.2;0.2;;;;;;;19.8;100.0;101440;;;;
2022/07/03 00:42:01;;;;;;;0.2;0.2;;;;;;;19.7;100.0;101440;;;;
2022/07/03 00:43:00;;;;;;;0.2;0.2;;;;;;;19.7;100.0;101440;;;;
2022/07/03 00:44:00;;;;;;;0.2;0.2;;;;;;;19.7;100.0;101440;;;;
2022/07/03 00:45:00;;;;;;;0.2;0.2;;;;;;;19.7;100.0;101440;;;;
2022/07/03 00:46:08;;;;;;;0.2;0.2;;;;;;;19.6;100.0;101440;;;;
2022/07/03 00:47:02;;;;;;;0.2;0.2;;;;;;;19.6;100.0;101440;;;;
2022/07/03 00:48:00;;;;;;;0.2;0.2;;;;;;;19.6;100.0;101440;;;;
2022/07/03 00:49:02;;;;;;;0.2;0.2;;;;;;;19.6;100.0;101440;;;;
2022/07/03 00:50:05;;;;;;;0.2;0.2;;;;;;;19.5;100.0;101450;;;;
2022/07/03 00:51:00;;;;;;;0.2;0.2;;;;;;;19.5;100.0;101450;;;;
2022/07/03 00:52:02;;;;;;;0.2;0.2;;;;;;;19.4;100.0;101450;;;;
2022/07/03 00:53:02;;;;;;;0.2;0.2;;;;;;;19.4;100.0;101450;;;;
2022/07/03 00:54:03;;;;;;;0.7;0.7;;;;;;;19.6;100.0;101450;;;;
2022/07/03 00:55:00;;;;;;;0.7;0.7;;;;;;;19.6;100.0;101450;;;;
2022/07/03 00:56:03;;;;;;;0.7;0.7;;;;;;;19.5;100.0;101450;;;;
2022/07/03 00:57:01;;;;;;;0.7;0.7;;;;;;;19.5;100.0;101450;;;;
2022/07/03 00:58:01;;;;;;;0.7;0.7;;;;;;;19.5;100.0;101450;;;;
2022/07/03 00:59:00;;;;;;;0.7;0.7;;;;;;;19.2;100.0;101460;;;;
2022/07/03 01:00:00;;;;;;;0.7;0.7;;;;;;;19.2;100.0;101460;;;;
2022/07/03 01:01:00;;;;;;;0.7;0.7;;;;;;;19.2;100.0;101460;;;;
2022/07/03 01:02:04;;;;;;;0.7;0.7;;;;;;;19.3;100.0;101460;;;;
2022/07/03 01:03:04;;;;;;;0.7;0.7;;;;;;;19.3;100.0;101460;;;;
2022/07/03 01:04:10;;;;;;;0.7;0.7;;;;;;;19.3;100.0;101460;;;;
2022/07/03 01:05:01;;;;;;;0.7;0.7;;;;;;;19.3;100.0;101460;;;;
2022/07/03 01:06:03;;;;;;;0.7;0.7;;;;;;;19.3;100.0;101460;;;;
2022/07/03 01:07:02;;;;;;;0.7;0.7;;;;;;;19.3;100.0;101460;;;;
2022/07/03 01:08:10;;;;;;;0.7;0.7;;;;;;;19.3;100.0;101450;;;;
2022/07/03 01:09:03;;;;;;;0.7;0.7;;;;;;;19.3;100.0;101450;;;;
2022/07/03 01:10:10;;;;;;;0.7;0.7;;;;;;;19.2;100.0;101450;;;;
2022/07/03 01:11:10;;;;;;;0.7;0.7;;;;;;;19.2;100.0;101450;;;;
2022/07/03 01:12:07;;;;;;;0.7;0.7;;;;;;;19.1;100.0;101460;;;;
2022/07/03 01:13:10;;;;;;;0.7;0.7;;;;;;;19.1;100.0;101460;;;;
2022/07/03 01:14:07;;;;;;;0.3;0.3;;;;;;;19.2;100.0;101460;;;;
2022/07/03 01:15:07;;;;;;;0.3;0.3;;;;;;;19.2;100.0;101460;;;;
2022/07/03 01:16:10;;;;;;;0.3;0.3;;;;;;;19.0;100.0;101460;;;;
2022/07/03 01:17:01;;;;;;;0.3;0.3;;;;;;;19.0;100.0;101460;;;;
2022/07/03 01:18:10;;;;;;;0.3;0.3;;;;;;;19.0;100.0;101460;;;;
2022/07/03 01:19:13;;;;;;;0.3;0.3;;;;;;;19.0;100.0;101460;;;;
2022/07/03 01:20:03;;;;;;;0.3;0.3;;;;;;;19.1;100.0;101460;;;;
2022/07/03 01:21:04;;;;;;;0.3;0.3;;;;;;;19.1;100.0;101460;;;;
2022/07/03 01:22:00;;;;;;;0.3;0.3;;;;;;;19.1;100.0;101460;;;;
2022/07/03 01:23:00;;;;;;;0.3;0.3;;;;;;;19.1;100.0;101450;;;;
2022/07/03 01:24:01;;;;;;;0.3;0.3;;;;;;;19.0;100.0;101460;;;;
2022/07/03 01:25:04;;;;;;;0.3;0.3;;;;;;;19.0;100.0;101460;;;;
2022/07/03 01:26:03;;;;;;;0.3;0.3;;;;;;;18.9;100.0;101450;;;;
2022/07/03 01:27:04;;;;;;;0.3;0.3;;;;;;;18.9;100.0;101450;;;;
2022/07/03 01:28:01;;;;;;;0.3;0.3;;;;;;;18.9;100.0;101450;;;;
2022/07/03 01:29:03;;;;;;;0.3;0.3;;;;;;;18.9;100.0;101460;;;;
2022/07/03 01:30:10;;;;;;;0.3;0.3;;;;;;;18.8;100.0;101460;;;;
2022/07/03 01:31:01;;;;;;;0.3;0.3;;;;;;;18.8;100.0;101460;;;;
2022/07/03 01:32:01;;;;;;;0.3;0.3;;;;;;;18.8;100.0;101460;;;;
2022/07/03 01:33:02;;;;;;;0.3;0.3;;;;;;;18.9;100.0;101460;;;;
2022/07/03 01:34:01;;;;;;;0.4;0.4;;;;;;;18.8;100.0;101470;;;;
2022/07/03 01:35:02;;;;;;;0.4;0.4;;;;;;;18.8;100.0;101470;;;;
2022/07/03 01:36:01;;;;;;;0.4;0.4;;;;;;;18.8;100.0;101470;;;;
2022/07/03 01:37:00;;;;;;;0.4;0.4;;;;;;;18.8;100.0;101470;;;;
2022/07/03 01:38:03;;;;;;;0.4;0.4;;;;;;;18.6;100.0;101470;;;;
2022/07/03 01:39:01;;;;;;;0.4;0.4;;;;;;;18.6;100.0;101470;;;;
2022/07/03 01:40:01;;;;;;;0.4;0.4;;;;;;;18.7;100.0;101470;;;;
2022/07/03 01:41:01;;;;;;;0.4;0.4;;;;;;;18.7;100.0;101470;;;;
2022/07/03 01:42:00;;;;;;;0.4;0.4;;;;;;;18.7;100.0;101470;;;;
2022/07/03 01:43:02;;;;;;;0.4;0.4;;;;;;;18.8;100.0;101460;;;;
2022/07/03 01:44:02;;;;;;;0.4;0.4;;;;;;;18.8;100.0;101460;;;;
2022/07/03 01:45:00;;;;;;;0.4;0.4;;;;;;;18.7;100.0;101460;;;;
2022/07/03 01:46:01;;;;;;;0.4;0.4;;;;;;;18.7;100.0;101470;;;;
2022/07/03 01:47:01;;;;;;;0.4;0.4;;;;;;;18.7;100.0;101470;;;;
2022/07/03 01:48:01;;;;;;;0.4;0.4;;;;;;;18.7;100.0;101470;;;;
2022/07/03 01:49:01;;;;;;;0.4;0.4;;;;;;;18.7;100.0;101460;;;;
2022/07/03 01:50:01;;;;;;;0.4;0.4;;;;;;;18.7;100.0;101470;;;;
2022/07/03 01:51:00;;;;;;;0.4;0.4;;;;;;;18.7;100.0;101470;;;;
2022/07/03 01:52:00;;;;;;;0.4;0.4;;;;;;;18.7;100.0;101470;;;;
2022/07/03 01:53:02;;;;;;;0.4;0.4;;;;;;;18.8;100.0;101460;;;;
2022/07/03 01:54:02;;;;;;;0.3;0.3;;;;;;;18.6;100.0;101460;;;;
2022/07/03 01:55:00;;;;;;;0.3;0.3;;;;;;;18.6;100.0;101460;;;;
2022/07/03 01:56:00;;;;;;;0.3;0.3;;;;;;;18.6;100.0;101460;;;;
2022/07/03 01:57:00;;;;;;;0.3;0.3;;;;;;;18.6;100.0;101460;;;;
2022/07/03 01:58:00;;;;;;;0.3;0.3;;;;;;;18.6;100.0;101460;;;;
2022/07/03 01:59:00;;;;;;;0.3;0.3;;;;;;;18.6;100.0;101460;;;;
2022/07/03 02:00:01;;;;;;;0.3;0.3;;;;;;;18.6;100.0;101460;;;;
2022/07/03 02:01:02;;;;;;;0.3;0.3;;;;;;;18.6;100.0;101470;;;;
2022/07/03 02:02:01;;;;;;;0.3;0.3;;;;;;;18.5;100.0;101460;;;;
2022/07/03 02:03:02;;;;;;;0.3;0.3;;;;;;;18.5;100.0;101460;;;;
2022/07/03 02:04:04;;;;;;;0.3;0.3;;;;;;;18.6;100.0;101460;;;;
2022/07/03 02:05:06;;;;;;;0.3;0.3;;;;;;;18.6;100.0;101460;;;;
2022/07/03 02:06:10;;;;;;;0.3;0.3;;;;;;;18.5;100.0;101460;;;;
2022/07/03 02:07:04;;;;;;;0.3;0.3;;;;;;;18.5;100.0;101460;;;;
2022/07/03 02:08:00;;;;;;;0.3;0.3;;;;;;;18.5;100.0;101460;;;;
2022/07/03 02:09:12;;;;;;;0.3;0.3;;;;;;;18.5;100.0;101460;;;;
2022/07/03 02:10:08;;;;;;;0.3;0.3;;;;;;;18.5;100.0;101460;;;;
2022/07/03 02:11:09;;;;;;;0.3;0.3;;;;;;;18.5;100.0;101460;;;;
2022/07/03 02:12:00;;;;;;;0.3;0.3;;;;;;;18.5;100.0;101460;;;;
2022/07/03 02:13:02;;;;;;;0.3;0.3;;;;;;;18.5;100.0;101460;;;;
2022/07/03 02:14:10;;;;;;;0.6;0.6;;;;;;;18.5;100.0;101450;;;;
2022/07/03 02:15:04;;;;;;;0.6;0.6;;;;;;;18.5;100.0;101450;;;;
2022/07/03 02:16:01;;;;;;;0.6;0.6;;;;;;;18.5;100.0;101450;;;;
2022/07/03 02:17:10;;;;;;;0.6;0.6;;;;;;;18.5;100.0;101450;;;;
2022/07/03 02:18:08;;;;;;;0.6;0.6;;;;;;;18.5;100.0;101450;;;;
2022/07/03 02:19:04;;;;;;;0.6;0.6;;;;;;;18.5;100.0;101450;;;;
2022/07/03 02:20:01;;;;;;;0.6;0.6;;;;;;;18.5;100.0;101450;;;;
2022/07/03 02:21:10;;;;;;;0.6;0.6;;;;;;;18.5;100.0;101450;;;;
2022/07/03 02:22:01;;;;;;;0.6;0.6;;;;;;;18.5;100.0;101450;;;;
2022/07/03 02:23:02;;;;;;;0.6;0.6;;;;;;;18.5;100.0;101450;;;;
2022/07/03 02:24:13;;;;;;;0.6;0.6;;;;;;;18.4;100.0;101450;;;;
2022/07/03 02:25:04;;;;;;;0.6;0.6;;;;;;;18.4;100.0;101450;;;;
2022/07/03 02:26:02;;;;;;;0.6;0.6;;;;;;;18.4;100.0;101450;;;;
2022/07/03 02:27:03;;;;;;;0.6;0.6;;;;;;;18.4;100.0;101450;;;;
2022/07/03 02:28:10;;;;;;;0.6;0.6;;;;;;;18.4;100.0;101450;;;;
2022/07/03 02:29:02;;;;;;;0.6;0.6;;;;;;;18.4;100.0;101450;;;;
2022/07/03 02:30:05;;;;;;;0.6;0.6;;;;;;;18.3;100.0;101450;;;;
2022/07/03 02:31:03;;;;;;;0.6;0.6;;;;;;;18.3;100.0;101450;;;;
2022/07/03 02:32:03;;;;;;;0.6;0.6;;;;;;;18.3;100.0;101450;;;;
2022/07/03 02:33:01;;;;;;;0.6;0.6;;;;;;;18.3;100.0;101450;;;;
2022/07/03 02:34:02;;;;;;;0.3;0.3;;;;;;;18.4;100.0;101450;;;;
2022/07/03 02:35:01;;;;;;;0.3;0.3;;;;;;;18.4;100.0;101450;;;;
2022/07/03 02:36:00;;;;;;;0.3;0.3;;;;;;;18.4;100.0;101450;;;;
2022/07/03 02:37:06;;;;;;;0.3;0.3;;;;;;;18.3;100.0;101450;;;;
2022/07/03 02:38:01;;;;;;;0.3;0.3;;;;;;;18.3;100.0;101450;;;;
2022/07/03 02:39:00;;;;;;;0.3;0.3;;;;;;;18.3;100.0;101440;;;;
2022/07/03 02:40:00;;;;;;;0.3;0.3;;;;;;;18.3;100.0;101440;;;;
2022/07/03 02:41:06;;;;;;;0.3;0.3;;;;;;;18.3;100.0;101450;;;;
2022/07/03 02:42:02;;;;;;;0.3;0.3;;;;;;;18.3;100.0;101450;;;;
2022/07/03 02:43:01;;;;;;;0.3;0.3;;;;;;;18.3;100.0;101450;;;;
2022/07/03 02:44:04;;;;;;;0.3;0.3;;;;;;;18.2;100.0;101450;;;;
2022/07/03 02:45:01;;;;;;;0.3;0.3;;;;;;;18.2;100.0;101450;;;;
2022/07/03 02:46:48;;;;;;;0.3;0.3;;;;;;;18.2;100.0;101450;;;;
2022/07/03 02:47:02;;;;;;;0.3;0.3;;;;;;;18.2;100.0;101450;;;;
2022/07/03 02:48:07;;;;;;;0.3;0.3;;;;;;;18.2;100.0;101450;;;;
2022/07/03 02:49:09;;;;;;;0.3;0.3;;;;;;;18.2;100.0;101450;;;;
2022/07/03 02:50:04;;;;;;;0.3;0.3;;;;;;;18.1;100.0;101450;;;;
2022/07/03 02:51:05;;;;;;;0.3;0.3;;;;;;;18.1;100.0;101450;;;;
2022/07/03 02:52:07;;;;;;;0.3;0.3;;;;;;;18.1;100.0;101450;;;;
2022/07/03 02:53:04;;;;;;;0.3;0.3;;;;;;;18.1;100.0;101450;;;;
2022/07/03 02:54:09;;;;;;;0.3;0.3;;;;;;;18.0;100.0;101450;;;;
2022/07/03 02:55:05;;;;;;;0.3;0.3;;;;;;;18.0;100.0;101450;;;;
2022/07/03 02:56:07;;;;;;;0.3;0.3;;;;;;;18.1;100.0;101440;;;;
2022/07/03 02:57:06;;;;;;;0.3;0.3;;;;;;;18.1;100.0;101440;;;;
2022/07/03 02:58:10;;;;;;;0.3;0.3;;;;;;;18.0;100.0;101450;;;;
2022/07/03 02:59:00;;;;;;;0.3;0.3;;;;;;;18.0;100.0;101450;;;;
2022/07/03 03:00:02;;;;;;;0.3;0.3;;;;;;;18.0;100.0;101450;;;;
2022/07/03 03:01:07;;;;;;;0.3;0.3;;;;;;;18.0;100.0;101450;;;;
2022/07/03 03:02:07;;;;;;;0.3;0.3;;;;;;;18.0;100.0;101450;;;;
2022/07/03 03:03:01;;;;;;;0.3;0.3;;;;;;;18.0;100.0;101450;;;;
2022/07/03 03:04:10;;;;;;;0.3;0.3;;;;;;;18.0;100.0;101450;;;;
2022/07/03 03:05:07;;;;;;;0.3;0.3;;;;;;;18.0;100.0;101450;;;;
2022/07/03 03:06:03;;;;;;;0.3;0.3;;;;;;;18.0;100.0;101460;;;;
2022/07/03 03:07:02;;;;;;;0.3;0.3;;;;;;;18.0;100.0;101460;;;;
2022/07/03 03:08:00;;;;;;;0.3;0.3;;;;;;;18.0;100.0;101460;;;;
2022/07/03 03:09:02;;;;;;;0.3;0.3;;;;;;;18.0;100.0;101460;;;;
2022/07/03 03:10:00;;;;;;;0.3;0.3;;;;;;;18.0;100.0;101460;;;;
2022/07/03 03:11:10;;;;;;;0.3;0.3;;;;;;;17.9;100.0;101460;;;;
2022/07/03 03:12:01;;;;;;;0.3;0.3;;;;;;;17.9;100.0;101460;;;;
2022/07/03 03:13:04;;;;;;;0.3;0.3;;;;;;;17.9;100.0;101460;;;;
2022/07/03 03:14:04;;;;;;;0.3;0.3;;;;;;;17.9;100.0;101460;;;;
2022/07/03 03:15:01;;;;;;;0.3;0.3;;;;;;;17.9;100.0;101460;;;;
2022/07/03 03:16:06;;;;;;;0.3;0.3;;;;;;;17.8;100.0;101460;;;;
2022/07/03 03:17:03;;;;;;;0.3;0.3;;;;;;;17.8;100.0;101460;;;;
2022/07/03 03:18:04;;;;;;;0.3;0.3;;;;;;;17.8;100.0;101460;;;;
2022/07/03 03:19:00;;;;;;;0.3;0.3;;;;;;;17.8;100.0;101460;;;;
2022/07/03 03:20:00;;;;;;;0.3;0.3;;;;;;;17.8;100.0;101460;;;;
2022/07/03 03:21:00;;;;;;;0.3;0.3;;;;;;;17.7;100.0;101460;;;;
2022/07/03 03:22:08;;;;;;;0.3;0.3;;;;;;;17.7;100.0;101460;;;;
2022/07/03 03:23:10;;;;;;;0.3;0.3;;;;;;;17.7;100.0;101460;;;;
2022/07/03 03:24:00;;;;;;;0.3;0.3;;;;;;;17.7;100.0;101460;;;;
2022/07/03 03:25:02;;;;;;;0.3;0.3;;;;;;;17.7;100.0;101460;;;;
2022/07/03 03:26:00;;;;;;;0.3;0.3;;;;;;;17.7;100.0;101460;;;;
2022/07/03 03:27:00;;;;;;;0.3;0.3;;;;;;;17.7;100.0;101450;;;;
2022/07/03 03:28:00;;;;;;;0.3;0.3;;;;;;;17.7;100.0;101450;;;;
2022/07/03 03:29:00;;;;;;;0.3;0.3;;;;;;;17.8;100.0;101460;;;;
2022/07/03 03:30:00;;;;;;;0.3;0.3;;;;;;;17.8;100.0;101460;;;;
2022/07/03 03:31:00;;;;;;;0.3;0.3;;;;;;;17.6;100.0;101460;;;;
2022/07/03 03:32:03;;;;;;;0.3;0.3;;;;;;;17.7;100.0;101460;;;;
2022/07/03 03:33:00;;;;;;;0.3;0.3;;;;;;;17.7;100.0;101460;;;;
2022/07/03 03:34:00;;;;;;;0.5;0.4;;;;;;;17.7;100.0;101460;;;;
2022/07/03 03:35:00;;;;;;;0.5;0.4;;;;;;;17.7;100.0;101460;;;;
2022/07/03 03:36:00;;;;;;;0.5;0.4;;;;;;;17.7;100.0;101460;;;;
2022/07/03 03:37:00;;;;;;;0.5;0.4;;;;;;;17.7;100.0;101460;;;;
2022/07/03 03:38:00;;;;;;;0.5;0.4;;;;;;;17.7;100.0;101460;;;;
2022/07/03 03:39:00;;;;;;;0.5;0.4;;;;;;;17.7;100.0;101460;;;;
2022/07/03 03:40:02;;;;;;;0.5;0.4;;;;;;;17.6;100.0;101470;;;;
2022/07/03 03:41:00;;;;;;;0.5;0.4;;;;;;;17.6;100.0;101470;;;;
2022/07/03 03:42:01;;;;;;;0.5;0.4;;;;;;;17.6;100.0;101470;;;;
2022/07/03 03:43:00;;;;;;;0.5;0.4;;;;;;;17.6;100.0;101470;;;;
2022/07/03 03:44:00;;;;;;;0.5;0.4;;;;;;;17.6;100.0;101470;;;;
2022/07/03 03:45:00;;;;;;;0.5;0.4;;;;;;;17.7;100.0;101470;;;;
2022/07/03 03:46:00;;;;;;;0.5;0.4;;;;;;;17.7;100.0;101470;;;;
2022/07/03 03:47:00;;;;;;;0.5;0.4;;;;;;;17.7;100.0;101470;;;;
2022/07/03 03:48:00;;;;;;;0.5;0.4;;;;;;;17.7;100.0;101470;;;;
2022/07/03 03:49:00;;;;;;;0.5;0.4;;;;;;;17.7;100.0;101470;;;;
2022/07/03 03:50:00;;;;;;;0.5;0.4;;;;;;;17.7;100.0;101470;;;;
2022/07/03 03:51:01;;;;;;;0.5;0.4;;;;;;;17.7;100.0;101470;;;;
2022/07/03 03:52:00;;;;;;;0.5;0.4;;;;;;;17.7;100.0;101470;;;;
2022/07/03 03:53:00;;;;;;;0.5;0.4;;;;;;;17.7;100.0;101470;;;;
2022/07/03 03:54:00;;;;;;;0.4;0.4;;;;;;;17.7;100.0;101470;;;;
2022/07/03 03:55:00;;;;;;;0.4;0.4;;;;;;;17.7;100.0;101470;;;;
2022/07/03 03:56:00;;;;;;;0.4;0.4;;;;;;;17.7;100.0;101470;;;;
2022/07/03 03:57:10;;;;;;;0.4;0.4;;;;;;;17.6;100.0;101470;;;;
2022/07/03 03:58:01;;;;;;;0.4;0.4;;;;;;;17.6;100.0;101470;;;;
2022/07/03 03:59:00;;;;;;;0.4;0.4;;;;;;;17.7;100.0;101470;;;;
2022/07/03 04:00:00;;;;;;;0.4;0.4;;;;;;;17.7;100.0;101470;;;;
2022/07/03 04:01:01;;;;;;;0.4;0.4;;;;;;;17.6;100.0;101470;;;;
2022/07/03 04:02:00;;;;;;;0.4;0.4;;;;;;;17.6;100.0;101470;;;;
2022/07/03 04:03:00;;;;;;;0.4;0.4;;;;;;;17.6;100.0;101470;;;;
2022/07/03 04:04:00;;;;;;;0.4;0.4;;;;;;;17.6;100.0;101470;;;;
2022/07/03 04:05:00;;;;;;;0.4;0.4;;;;;;;17.6;100.0;101470;;;;
2022/07/03 04:06:00;;;;;;;0.4;0.4;;;;;;;17.6;100.0;101470;;;;
2022/07/03 04:07:00;;;;;;;0.4;0.4;;;;;;;17.6;100.0;101470;;;;
2022/07/03 04:08:00;;;;;;;0.4;0.4;;;;;;;17.6;100.0;101470;;;;
2022/07/03 04:09:00;;;;;;;0.4;0.4;;;;;;;17.7;100.0;101470;;;;
2022/07/03 04:10:00;;;;;;;0.4;0.4;;;;;;;17.7;100.0;101470;;;;
2022/07/03 04:11:00;;;;;;;0.4;0.4;;;;;;;17.7;100.0;101470;;;;
2022/07/03 04:12:00;;;;;;;0.4;0.4;;;;;;;17.7;100.0;101470;;;;
2022/07/03 04:13:00;;;;;;;1.3;0.9;;;;;;;17.7;100.0;101470;;;;
2022/07/03 04:14:00;;;;;;;1.3;0.9;;;;;;;17.7;100.0;101470;;;;
2022/07/03 04:15:00;;;;;;;1.3;0.9;;;;;;;17.8;100.0;101460;;;;
2022/07/03 04:16:00;;;;;;;1.3;0.9;;;;;;;17.8;100.0;101460;;;;
2022/07/03 04:17:00;;;;;;;1.3;0.9;;;;;;;17.7;100.0;101470;;;;
2022/07/03 04:18:00;;;;;;;1.3;0.9;;;;;;;17.7;100.0;101470;;;;
2022/07/03 04:19:00;;;;;;;1.3;0.9;;;;;;;17.6;100.0;101460;;;;
2022/07/03 04:20:00;;;;;;;1.3;0.9;;;;;;;17.6;100.0;101460;;;;
2022/07/03 04:21:00;;;;;;;1.3;0.9;;;;;;;17.7;100.0;101460;;;;
2022/07/03 04:22:00;;;;;;;1.3;0.9;;;;;;;17.7;100.0;101460;;;;
2022/07/03 04:23:00;;;;;;;1.3;0.9;;;;;;;17.7;100.0;101470;;;;
2022/07/03 04:24:00;;;;;;;1.3;0.9;;;;;;;17.7;100.0;101470;;;;
2022/07/03 04:25:00;;;;;;;1.3;0.9;;;;;;;17.6;100.0;101460;;;;
2022/07/03 04:26:04;;;;;;;1.3;0.9;;;;;;;17.7;100.0;101460;;;;
2022/07/03 04:27:00;;;;;;;1.3;0.9;;;;;;;17.7;100.0;101460;;;;
2022/07/03 04:28:10;;;;;;;1.3;0.9;;;;;;;17.6;100.0;101460;;;;
2022/07/03 04:29:00;;;;;;;1.3;0.9;;;;;;;17.6;100.0;101460;;;;
2022/07/03 04:30:00;;;;;;;1.3;0.9;;;;;;;17.6;100.0;101460;;;;
2022/07/03 04:31:00;;;;;;;1.3;0.9;;;;;;;17.7;100.0;101460;;;;
2022/07/03 04:32:00;;;;;;;1.3;0.9;;;;;;;17.7;100.0;101460;;;;
2022/07/03 04:33:00;;;;;;;0.3;0.3;;;;;;;17.6;100.0;101470;;;;
2022/07/03 04:34:00;;;;;;;0.3;0.3;;;;;;;17.6;100.0;101470;;;;
2022/07/03 04:35:00;;;;;;;0.3;0.3;;;;;;;17.7;100.0;101470;;;;
2022/07/03 04:36:00;;;;;;;0.3;0.3;;;;;;;17.7;100.0;101470;;;;
2022/07/03 04:37:00;;;;;;;0.3;0.3;;;;;;;17.6;100.0;101470;;;;
2022/07/03 04:38:00;;;;;;;0.3;0.3;;;;;;;17.6;100.0;101470;;;;
2022/07/03 04:39:00;;;;;;;0.3;0.3;;;;;;;17.6;100.0;101470;;;;
2022/07/03 04:40:00;;;;;;;0.3;0.3;;;;;;;17.6;100.0;101470;;;;
2022/07/03 04:41:00;;;;;;;0.3;0.3;;;;;;;17.6;100.0;101470;;;;
2022/07/03 04:42:00;;;;;;;0.3;0.3;;;;;;;17.6;100.0;101470;;;;
2022/07/03 04:43:00;;;;;;;0.3;0.3;;;;;;;17.6;100.0;101480;;;;
2022/07/03 04:44:00;;;;;;;0.3;0.3;;;;;;;17.6;100.0;101480;;;;
2022/07/03 04:45:00;;;;;;;0.3;0.3;;;;;;;17.6;100.0;101480;;;;
2022/07/03 04:46:00;;;;;;;0.3;0.3;;;;;;;17.6;100.0;101480;;;;
2022/07/03 04:47:00;;;;;;;0.3;0.3;;;;;;;17.6;100.0;101480;;;;
2022/07/03 04:48:00;;;;;;;0.3;0.3;;;;;;;17.6;100.0;101480;;;;
2022/07/03 04:49:00;;;;;;;0.3;0.3;;;;;;;17.6;100.0;101480;;;;
2022/07/03 04:50:00;;;;;;;0.3;0.3;;;;;;;17.6;100.0;101480;;;;
2022/07/03 04:51:00;;;;;;;0.3;0.3;;;;;;;17.6;100.0;101480;;;;
2022/07/03 04:52:00;;;;;;;0.3;0.3;;;;;;;17.6;100.0;101480;;;;
2022/07/03 04:53:00;;;;;;;0.5;0.5;;;;;;;17.6;100.0;101480;;;;
2022/07/03 04:54:00;;;;;;;0.5;0.5;;;;;;;17.6;100.0;101480;;;;
2022/07/03 04:55:00;;;;;;;0.5;0.5;;;;;;;17.7;100.0;101480;;;;
2022/07/03 04:56:00;;;;;;;0.5;0.5;;;;;;;17.7;100.0;101480;;;;
2022/07/03 04:57:00;;;;;;;0.5;0.5;;;;;;;17.6;100.0;101480;;;;
2022/07/03 04:58:00;;;;;;;0.5;0.5;;;;;;;17.6;100.0;101480;;;;
2022/07/03 04:59:00;;;;;;;0.5;0.5;;;;;;;17.6;100.0;101480;;;;
2022/07/03 05:00:00;;;;;;;0.5;0.5;;;;;;;17.6;100.0;101480;;;;
2022/07/03 05:01:00;;;;;;;0.5;0.5;;;;;;;17.7;100.0;101480;;;;
2022/07/03 05:02:00;;;;;;;0.5;0.5;;;;;;;17.7;100.0;101480;;;;
2022/07/03 05:03:00;;;;;;;0.5;0.5;;;;;;;17.8;100.0;101490;;;;
2022/07/03 05:04:00;;;;;;;0.5;0.5;;;;;;;17.8;100.0;101490;;;;
2022/07/03 05:05:00;;;;;;;0.5;0.5;;;;;;;17.9;100.0;101480;;;;
2022/07/03 05:06:01;;;;;;;0.5;0.5;;;;;;;17.9;100.0;101480;;;;
2022/07/03 05:07:00;;;;;;;0.5;0.5;;;;;;;18.0;100.0;101480;;;;
2022/07/03 05:08:00;;;;;;;0.5;0.5;;;;;;;18.0;100.0;101480;;;;
2022/07/03 05:09:00;;;;;;;0.5;0.5;;;;;;;18.2;100.0;101490;;;;
2022/07/03 05:10:00;;;;;;;0.5;0.5;;;;;;;18.2;100.0;101490;;;;
2022/07/03 05:11:00;;;;;;;0.5;0.5;;;;;;;18.2;100.0;101490;;;;
2022/07/03 05:12:00;;;;;;;0.5;0.5;;;;;;;18.2;100.0;101490;;;;
2022/07/03 05:13:00;;;;;;;0.9;0.9;;;;;;;18.3;100.0;101490;;;;
2022/07/03 05:14:00;;;;;;;0.9;0.9;;;;;;;18.3;100.0;101490;;;;
2022/07/03 05:15:00;;;;;;;0.9;0.9;;;;;;;18.3;100.0;101490;;;;
2022/07/03 05:16:00;;;;;;;0.9;0.9;;;;;;;18.3;100.0;101490;;;;
2022/07/03 05:17:00;;;;;;;0.9;0.9;;;;;;;18.2;100.0;101490;;;;
2022/07/03 05:18:00;;;;;;;0.9;0.9;;;;;;;18.2;100.0;101490;;;;
2022/07/03 05:19:00;;;;;;;0.9;0.9;;;;;;;18.4;100.0;101490;;;;
2022/07/03 05:21:00;;;;;;;0.9;0.9;;;;;;;18.4;100.0;101490;;;;
2022/07/03 05:22:00;;;;;;;0.9;0.9;;;;;;;18.4;100.0;101490;;;;
2022/07/03 05:23:01;;;;;;;0.9;0.9;;;;;;;18.4;100.0;101490;;;;
2022/07/03 05:24:00;;;;;;;0.9;0.9;;;;;;;18.4;100.0;101490;;;;
2022/07/03 05:25:00;;;;;;;0.9;0.9;;;;;;;18.3;100.0;101490;;;;
2022/07/03 05:26:00;;;;;;;0.9;0.9;;;;;;;18.3;100.0;101490;;;;
2022/07/03 05:27:00;;;;;;;0.9;0.9;;;;;;;18.3;100.0;101490;;;;
2022/07/03 05:28:00;;;;;;;0.9;0.9;;;;;;;18.3;100.0;101490;;;;
2022/07/03 05:29:00;;;;;;;0.9;0.9;;;;;;;18.4;100.0;101500;;;;
2022/07/03 05:30:00;;;;;;;0.9;0.9;;;;;;;18.4;100.0;101500;;;;
2022/07/03 05:31:00;;;;;;;0.9;0.9;;;;;;;18.3;100.0;101500;;;;
2022/07/03 05:32:00;;;;;;;0.9;0.9;;;;;;;18.3;100.0;101500;;;;
2022/07/03 05:33:00;;;;;;;1.4;1.3;;;;;;;18.4;100.0;101500;;;;
2022/07/03 05:34:00;;;;;;;1.4;1.3;;;;;;;18.4;100.0;101500;;;;
2022/07/03 05:35:00;;;;;;;1.4;1.3;;;;;;;18.4;100.0;101500;;;;
2022/07/03 05:36:00;;;;;;;1.4;1.3;;;;;;;18.4;100.0;101500;;;;
2022/07/03 05:37:00;;;;;;;1.4;1.3;;;;;;;18.4;100.0;101500;;;;
2022/07/03 05:38:00;;;;;;;1.4;1.3;;;;;;;18.4;100.0;101500;;;;
2022/07/03 05:40:00;;;;;;;1.4;1.3;;;;;;;18.4;100.0;101500;;;;
2022/07/03 05:41:00;;;;;;;1.4;1.3;;;;;;;18.4;100.0;101500;;;;
2022/07/03 05:42:00;;;;;;;1.4;1.3;;;;;;;18.4;100.0;101500;;;;
2022/07/03 05:43:00;;;;;;;1.4;1.3;;;;;;;18.5;100.0;101500;;;;
2022/07/03 05:44:00;;;;;;;1.4;1.3;;;;;;;18.5;100.0;101500;;;;
2022/07/03 05:45:01;;;;;;;1.4;1.3;;;;;;;18.5;100.0;101500;;;;
2022/07/03 05:46:00;;;;;;;1.4;1.3;;;;;;;18.5;100.0;101500;;;;
2022/07/03 05:47:00;;;;;;;1.4;1.3;;;;;;;18.5;100.0;101500;;;;
2022/07/03 05:48:03;;;;;;;1.4;1.3;;;;;;;18.5;100.0;101500;;;;
2022/07/03 05:49:00;;;;;;;1.4;1.3;;;;;;;18.5;100.0;101500;;;;
2022/07/03 05:50:00;;;;;;;1.4;1.3;;;;;;;18.5;100.0;101500;;;;
2022/07/03 05:51:00;;;;;;;1.4;1.3;;;;;;;18.4;100.0;101500;;;;
2022/07/03 05:52:00;;;;;;;1.4;1.3;;;;;;;18.4;100.0;101500;;;;
2022/07/03 05:53:00;;;;;;;0.3;0.3;;;;;;;18.4;100.0;101500;;;;
2022/07/03 05:54:00;;;;;;;0.3;0.3;;;;;;;18.4;100.0;101500;;;;
2022/07/03 05:55:00;;;;;;;0.3;0.3;;;;;;;18.5;100.0;101500;;;;
2022/07/03 05:56:00;;;;;;;0.3;0.3;;;;;;;18.5;100.0;101500;;;;
2022/07/03 05:57:00;;;;;;;0.3;0.3;;;;;;;18.5;100.0;101500;;;;
2022/07/03 05:58:00;;;;;;;0.3;0.3;;;;;;;18.5;100.0;101500;;;;
2022/07/03 05:59:00;;;;;;;0.3;0.3;;;;;;;18.5;100.0;101510;;;;
2022/07/03 06:00:01;;;;;;;0.3;0.3;;;;;;;18.5;100.0;101510;;;;
2022/07/03 06:01:00;;;;;;;0.3;0.3;;;;;;;18.5;100.0;101510;;;;
2022/07/03 06:02:00;;;;;;;0.3;0.3;;;;;;;18.5;100.0;101510;;;;
2022/07/03 06:03:01;;;;;;;0.3;0.3;;;;;;;18.5;100.0;101510;;;;
2022/07/03 06:04:00;;;;;;;0.3;0.3;;;;;;;18.5;100.0;101510;;;;
2022/07/03 06:05:00;;;;;;;0.3;0.3;;;;;;;18.5;100.0;101510;;;;
2022/07/03 06:06:00;;;;;;;0.3;0.3;;;;;;;18.5;100.0;101510;;;;
2022/07/03 06:07:00;;;;;;;0.3;0.3;;;;;;;18.6;100.0;101510;;;;
2022/07/03 06:08:00;;;;;;;0.3;0.3;;;;;;;18.6;100.0;101510;;;;
2022/07/03 06:09:00;;;;;;;0.3;0.3;;;;;;;18.8;100.0;101520;;;;
2022/07/03 06:10:00;;;;;;;0.3;0.3;;;;;;;18.8;100.0;101520;;;;
2022/07/03 06:11:00;;;;;;;0.3;0.3;;;;;;;18.7;100.0;101510;;;;
2022/07/03 06:12:00;;;;;;;0.3;0.3;;;;;;;18.7;100.0;101510;;;;
2022/07/03 06:13:00;;;;;;;0.4;0.4;;;;;;;18.7;100.0;101520;;;;
2022/07/03 06:14:00;;;;;;;0.4;0.4;;;;;;;18.7;100.0;101520;;;;
2022/07/03 06:15:02;;;;;;;0.4;0.4;;;;;;;18.9;100.0;101520;;;;
2022/07/03 06:16:00;;;;;;;0.4;0.4;;;;;;;18.9;100.0;101520;;;;
2022/07/03 06:17:01;;;;;;;0.4;0.4;;;;;;;19.1;100.0;101520;;;;
2022/07/03 06:18:00;;;;;;;0.4;0.4;;;;;;;19.1;100.0;101520;;;;
2022/07/03 06:19:00;;;;;;;0.4;0.4;;;;;;;19.3;100.0;101520;;;;
2022/07/03 06:20:00;;;;;;;0.4;0.4;;;;;;;19.3;100.0;101520;;;;
2022/07/03 06:21:00;;;;;;;0.4;0.4;;;;;;;19.2;100.0;101510;;;;
2022/07/03 06:22:00;;;;;;;0.4;0.4;;;;;;;19.2;100.0;101510;;;;
2022/07/03 06:23:00;;;;;;;0.4;0.4;;;;;;;19.4;100.0;101510;;;;
2022/07/03 06:24:00;;;;;;;0.4;0.4;;;;;;;19.4;100.0;101510;;;;